Time;durP1;ratioP1;P1;durP2;ratioP2;P2;SDS_P1;SDS_P2;PMS_P1;PMS_P2;Temp;Humidity;BMP_temperature;BMP_pressure;BME280_temperature;BME280_humidity;BME280_pressure;Samples;Min_cycle;Max_cycle;Signal;HPM_P1;HPM_P2
2021/05/11 00:00:07;;;;;;;;;;;13.20;99.90;;;;;;8360035;28;20372;-62
2021/05/11 00:04:07;;;;;;;;;;;13.10;99.90;;;;;;8341895;28;19915;-62
2021/05/11 00:08:08;;;;;;;;;;;13.00;99.90;;;;;;8375156;28;19909;-62
2021/05/11 00:12:08;;;;;;;;;;;13.10;99.90;;;;;;8341573;28;20341;-62
2021/05/11 00:16:09;;;;;;;;;;;13.00;99.90;;;;;;8359196;28;19940;-62
2021/05/11 00:20:10;;;;;;;;;;;12.90;99.90;;;;;;8374511;28;19935;-62
2021/05/11 00:24:12;;;;;;;;;;;13.10;99.90;;;;;;8358908;28;19921;-62
2021/05/11 00:28:12;;;;;;;;;;;12.90;99.90;;;;;;8359112;28;19909;-63
2021/05/11 00:32:13;;;;;;;;;;;13.00;99.90;;;;;;8357987;28;19913;-63
2021/05/11 00:36:13;;;;;;;;;;;12.70;99.90;;;;;;8358355;28;19916;-62
2021/05/11 00:40:14;;;;;;;;;;;12.70;99.90;;;;;;8341011;28;19909;-61
2021/05/11 00:44:21;;;;;;;;;;;12.80;99.90;;;;;;8358792;28;20342;-61
2021/05/11 00:48:21;;;;;;;;;;;12.90;99.90;;;;;;8358939;28;20329;-62
2021/05/11 00:52:22;;;;;;;;;;;12.70;99.90;;;;;;8358346;28;19913;-62
2021/05/11 00:56:24;;;;;;;;;;;12.90;99.90;;;;;;8358727;28;19909;-61
2021/05/11 01:00:24;;;;;;;;;;;12.70;99.90;;;;;;8358685;28;19913;-61
2021/05/11 01:04:25;;;;;;;;;;;12.60;99.90;;;;;;8358254;28;20302;-62
2021/05/11 01:08:26;;;;;;;;;;;12.60;99.90;;;;;;8358689;28;20011;-62
2021/05/11 01:12:26;;;;;;;;;;;12.50;99.90;;;;;;8358060;28;19917;-61
2021/05/11 01:16:29;;;;;;;;;;;12.80;99.90;;;;;;8358180;28;19916;-61
2021/05/11 01:20:36;;;;;;;;;;;12.80;99.90;;;;;;8362625;28;20375;-61
2021/05/11 01:24:42;;;;;;;;;;;12.60;99.90;;;;;;8364135;28;19982;-61
2021/05/11 01:28:54;;;;;;;;;;;12.30;99.90;;;;;;8347195;28;20393;-61
2021/05/11 01:43:51;;;;;;;;;;;12.20;99.90;;;;;;8364390;28;20498;-62
2021/05/11 01:50:36;;;;;;;;;;;12.40;99.90;;;;;;8364325;28;19962;-61
2021/05/11 02:24:07;;;;;;;;;;;12.10;99.90;;;;;;8363163;28;19982;-62
2021/05/11 02:28:08;;;;;;;;;;;12.20;99.90;;;;;;8362566;28;20421;-61
2021/05/11 02:32:08;;;;;;;;;;;12.10;99.90;;;;;;8360773;28;19916;-61
2021/05/11 02:36:09;;;;;;;;;;;11.90;99.90;;;;;;8362556;28;19916;-62
2021/05/11 02:40:11;;;;;;;;;;;11.80;99.90;;;;;;8362625;28;19909;-62
2021/05/11 02:44:14;;;;;;;;;;;12.00;99.90;;;;;;8377627;28;19912;-62
2021/05/11 02:48:15;;;;;;;;;;;11.90;99.90;;;;;;8362202;28;20321;-61
2021/05/11 02:52:15;;;;;;;;;;;12.20;99.90;;;;;;8343785;28;19920;-61
2021/05/11 02:56:16;;;;;;;;;;;12.00;99.90;;;;;;8362070;28;19909;-61
2021/05/11 03:00:18;;;;;;;;;;;11.80;99.90;;;;;;8361742;28;19909;-61
2021/05/11 03:04:18;;;;;;;;;;;11.80;99.90;;;;;;8361617;28;20558;-62
2021/05/11 03:08:18;;;;;;;;;;;11.80;99.90;;;;;;8361966;28;19913;-61
2021/05/11 03:12:19;;;;;;;;;;;12.30;99.90;;;;;;8361250;28;19921;-61
2021/05/11 03:16:21;;;;;;;;;;;12.20;99.90;;;;;;8343199;28;20248;-62
2021/05/11 03:20:22;;;;;;;;;;;12.10;99.90;;;;;;8376668;28;20487;-62
2021/05/11 03:24:22;;;;;;;;;;;12.00;99.90;;;;;;8376396;28;19952;-62
2021/05/11 03:28:23;;;;;;;;;;;12.10;99.90;;;;;;8361040;28;19924;-62
2021/05/11 03:32:24;;;;;;;;;;;12.10;99.90;;;;;;8376350;28;19916;-61
2021/05/11 03:36:24;;;;;;;;;;;12.00;99.90;;;;;;8376411;28;19912;-63
2021/05/11 03:40:25;;;;;;;;;;;11.90;99.90;;;;;;8374534;28;19920;-61
2021/05/11 03:44:29;;;;;;;;;;;11.80;99.90;;;;;;8367534;28;19920;-61
2021/05/11 03:48:29;;;;;;;;;;;11.80;99.90;;;;;;8360842;28;19952;-62
2021/05/11 03:52:30;;;;;;;;;;;11.70;99.90;;;;;;8360178;28;19966;-61
2021/05/11 03:56:30;;;;;;;;;;;11.40;99.90;;;;;;8360114;28;20308;-62
2021/05/11 04:00:31;;;;;;;;;;;11.40;99.90;;;;;;8359678;28;19917;-61
2021/05/11 04:04:32;;;;;;;;;;;11.30;99.90;;;;;;8359842;28;19916;-62
2021/05/11 04:16:57;;;;;;;;;;;11.40;99.90;;;;;;8359757;28;19920;-62
2021/05/11 04:20:58;;;;;;;;;;;11.10;99.90;;;;;;8359210;28;20020;-62
2021/05/11 04:24:58;;;;;;;;;;;11.00;99.90;;;;;;8358711;28;20401;-62
2021/05/11 04:28:59;;;;;;;;;;;11.20;99.90;;;;;;8359418;28;19913;-62
2021/05/11 04:32:59;;;;;;;;;;;12.00;99.90;;;;;;8358792;28;19916;-62
2021/05/11 04:37:00;;;;;;;;;;;12.20;99.90;;;;;;8354457;22;19936;-67
2021/05/11 04:41:00;;;;;;;;;;;12.30;99.90;;;;;;8293273;28;19960;-67
2021/05/11 04:45:01;;;;;;;;;;;12.70;99.90;;;;;;8292701;28;19925;-67
2021/05/11 04:49:02;;;;;;;;;;;13.10;99.90;;;;;;8293558;28;19916;-66
2021/05/11 04:53:03;;;;;;;;;;;13.50;99.90;;;;;;8293219;28;19925;-66
2021/05/11 04:57:04;;;;;;;;;;;13.80;99.90;;;;;;8291816;28;19914;-67
2021/05/11 05:01:05;;;;;;;;;;;13.90;99.90;;;;;;8286514;28;19910;-66
2021/05/11 05:05:05;;;;;;;;;;;14.00;99.90;;;;;;8287286;28;19924;-66
2021/05/11 05:09:06;;;;;;;;;;;13.90;99.90;;;;;;8273297;28;19917;-68
2021/05/11 05:13:07;;;;;;;;;;;13.80;99.90;;;;;;8276972;28;19922;-67
2021/05/11 05:17:07;;;;;;;;;;;13.90;99.90;;;;;;8280641;28;19917;-68
2021/05/11 05:21:09;;;;;;;;;;;13.80;99.90;;;;;;8281808;28;19913;-68
2021/05/11 05:25:15;;;;;;;;;;;13.90;99.90;;;;;;8297990;28;20375;-67
2021/05/11 05:29:16;;;;;;;;;;;14.10;99.90;;;;;;8296526;28;19914;-67
2021/05/11 05:33:17;;;;;;;;;;;13.80;99.90;;;;;;8298547;28;20294;-67
2021/05/11 05:37:17;;;;;;;;;;;13.80;99.90;;;;;;8301371;28;19921;-67
2021/05/11 05:41:22;;;;;;;;;;;13.80;99.90;;;;;;8309577;28;19920;-67
2021/05/11 05:45:22;;;;;;;;;;;13.70;99.90;;;;;;8279201;28;20658;-67
2021/05/11 05:49:25;;;;;;;;;;;13.70;99.90;;;;;;8312042;28;19921;-65
2021/05/11 05:53:34;;;;;;;;;;;14.00;99.90;;;;;;8298336;28;19925;-65
2021/05/11 05:57:34;;;;;;;;;;;14.20;99.90;;;;;;8311735;28;20694;-65
2021/05/11 06:01:35;;;;;;;;;;;14.20;99.90;;;;;;8314419;28;19955;-66
2021/05/11 06:05:36;;;;;;;;;;;14.00;99.90;;;;;;8288697;28;19913;-65
2021/05/11 06:09:36;;;;;;;;;;;14.30;99.90;;;;;;8312965;28;19913;-66
2021/05/11 06:13:44;;;;;;;;;;;14.10;99.90;;;;;;8309460;28;19952;-65
2021/05/11 06:17:44;;;;;;;;;;;14.20;99.90;;;;;;8276653;28;19909;-65
2021/05/11 06:21:45;;;;;;;;;;;14.40;99.90;;;;;;8294827;28;19914;-65
2021/05/11 06:25:45;;;;;;;;;;;14.40;99.90;;;;;;8296024;28;19964;-64
2021/05/11 06:29:47;;;;;;;;;;;14.30;99.90;;;;;;8295560;28;19972;-65
2021/05/11 06:33:47;;;;;;;;;;;14.40;99.90;;;;;;8272664;28;20017;-65
2021/05/11 06:37:54;;;;;;;;;;;14.20;99.90;;;;;;8264712;28;19976;-66
2021/05/11 06:41:57;;;;;;;;;;;14.20;99.90;;;;;;8264103;28;19929;-66
2021/05/11 06:54:32;;;;;;;;;;;14.70;99.90;;;;;;8263711;28;19918;-65
2021/05/11 06:58:33;;;;;;;;;;;14.90;99.90;;;;;;8262972;28;19957;-65
2021/05/11 07:02:33;;;;;;;;;;;15.00;99.90;;;;;;8263766;28;19949;-66
2021/05/11 07:06:35;;;;;;;;;;;15.10;99.90;;;;;;8295509;28;20285;-66
2021/05/11 07:10:37;;;;;;;;;;;15.20;99.90;;;;;;8270788;28;19909;-65
2021/05/11 07:14:37;;;;;;;;;;;15.50;99.90;;;;;;8295022;28;19917;-64
2021/05/11 07:18:38;;;;;;;;;;;15.10;99.90;;;;;;8291831;28;19918;-66
2021/05/11 07:22:38;;;;;;;;;;;15.10;99.90;;;;;;8271795;28;19918;-65
2021/05/11 07:27:01;;;;;;;;;;;15.20;99.90;;;;;;8290087;28;20269;-66
2021/05/11 07:31:05;;;;;;;;;;;15.30;99.90;;;;;;8287446;28;19925;-66
2021/05/11 07:35:06;;;;;;;;;;;15.50;99.90;;;;;;8282236;28;20377;-66
2021/05/11 07:39:07;;;;;;;;;;;15.40;99.90;;;;;;8285358;28;19941;-66
2021/05/11 07:43:08;;;;;;;;;;;15.80;99.90;;;;;;8282576;28;19917;-65
2021/05/11 07:51:43;;;;;;;;;;;16.80;99.90;;;;;;8284123;28;19936;-65
2021/05/11 08:17:20;;;;;;;;;;;17.10;99.90;;;;;;8293921;28;19921;-73
2021/05/11 08:29:49;;;;;;;;;;;18.40;99.90;;;;;;8279313;28;19924;-66
2021/05/11 08:33:49;;;;;;;;;;;18.90;99.90;;;;;;8302256;28;19922;-67
2021/05/11 08:37:50;;;;;;;;;;;19.20;99.90;;;;;;8267379;28;19996;-66
2021/05/11 08:41:50;;;;;;;;;;;19.60;99.90;;;;;;8283689;28;19913;-66
2021/05/11 08:45:51;;;;;;;;;;;19.90;99.90;;;;;;8273270;28;20376;-66
2021/05/11 08:49:51;;;;;;;;;;;20.20;99.90;;;;;;8290937;28;20373;-66
2021/05/11 09:07:00;;;;;;;;;;;20.50;99.90;;;;;;8292509;28;19920;-67
2021/05/11 09:23:56;;;;;;;;;;;18.50;99.90;;;;;;8290308;28;19921;-65
2021/05/11 09:28:05;;;;;;;;;;;18.90;99.90;;;;;;8286816;28;19921;-65
2021/05/11 09:45:36;;;;;;;;;;;18.80;99.90;;;;;;8297606;28;19916;-64
2021/05/11 10:42:07;;;;;;;;;;;18.60;99.90;;;;;;8302493;28;20323;-65
2021/05/11 10:46:48;;;;;;;;;;;18.20;99.90;;;;;;8306750;28;19913;-65
2021/05/11 10:50:54;;;;;;;;;;;18.30;99.90;;;;;;8309121;28;20506;-65
2021/05/11 10:55:11;;;;;;;;;;;18.10;99.90;;;;;;8308982;28;19917;-66
2021/05/11 10:59:33;;;;;;;;;;;17.30;99.90;;;;;;8284429;28;19996;-65
2021/05/11 11:03:34;;;;;;;;;;;17.30;99.90;;;;;;8301690;28;19913;-65
2021/05/11 11:07:39;;;;;;;;;;;17.30;99.90;;;;;;8294682;28;19967;-65
2021/05/11 11:11:39;;;;;;;;;;;17.90;99.90;;;;;;8295227;28;19976;-65
2021/05/11 11:15:41;;;;;;;;;;;17.80;99.90;;;;;;8295589;28;19910;-65
2021/05/11 11:19:48;;;;;;;;;;;17.60;99.90;;;;;;8302602;28;19913;-65
2021/05/11 11:23:49;;;;;;;;;;;17.40;99.90;;;;;;8297797;28;19963;-65
2021/05/11 11:27:51;;;;;;;;;;;17.50;99.90;;;;;;8307854;28;21302;-64
2021/05/11 11:31:52;;;;;;;;;;;17.10;99.90;;;;;;8276470;28;19929;-64
2021/05/11 11:35:52;;;;;;;;;;;17.00;99.90;;;;;;8291673;28;20368;-64
2021/05/11 11:39:54;;;;;;;;;;;17.20;99.90;;;;;;8291980;28;19909;-65
2021/05/11 11:43:55;;;;;;;;;;;16.80;99.90;;;;;;8293755;28;20372;-64
2021/05/11 11:48:05;;;;;;;;;;;16.90;99.90;;;;;;8293752;28;20036;-64
2021/05/11 11:52:09;;;;;;;;;;;16.90;99.90;;;;;;8290495;28;19949;-64
2021/05/11 11:56:39;;;;;;;;;;;17.10;99.90;;;;;;8293493;28;20308;-64
2021/05/11 12:00:39;;;;;;;;;;;17.10;99.90;;;;;;8308048;28;19980;-65
2021/05/11 12:04:40;;;;;;;;;;;17.30;99.90;;;;;;8292535;28;19914;-64
2021/05/11 12:08:41;;;;;;;;;;;17.30;99.90;;;;;;8294104;28;19917;-64
2021/05/11 12:12:41;;;;;;;;;;;16.80;99.90;;;;;;8293525;28;20008;-64
2021/05/11 12:16:43;;;;;;;;;;;16.70;99.90;;;;;;8294121;28;20008;-64
2021/05/11 12:20:44;;;;;;;;;;;16.90;99.90;;;;;;8293600;28;19917;-64
2021/05/11 12:24:44;;;;;;;;;;;17.10;99.90;;;;;;8292815;28;20403;-64
2021/05/11 12:28:45;;;;;;;;;;;17.00;99.90;;;;;;8293133;28;19934;-65
2021/05/11 12:32:45;;;;;;;;;;;16.90;99.90;;;;;;8293259;28;19922;-64
2021/05/11 12:36:51;;;;;;;;;;;16.90;99.90;;;;;;8290336;28;19917;-65
2021/05/11 12:41:19;;;;;;;;;;;17.10;99.90;;;;;;8270921;28;19959;-64
2021/05/11 12:45:15;;;;;;;;;;;17.00;99.90;;;;;;8289534;28;19996;-64
2021/05/11 12:49:18;;;;;;;;;;;17.00;99.90;;;;;;8266308;28;19914;-65
2021/05/11 12:53:29;;;;;;;;;;;17.20;99.90;;;;;;8259540;28;20012;-65
2021/05/11 12:57:31;;;;;;;;;;;17.10;99.90;;;;;;8262753;28;19920;-64
2021/05/11 13:23:04;;;;;;;;;;;17.00;99.90;;;;;;8266398;28;19937;-65
2021/05/11 13:31:28;;;;;;;;;;;16.30;99.90;;;;;;8278917;28;19923;-65
2021/05/11 13:35:29;;;;;;;;;;;16.10;99.90;;;;;;8288949;28;19925;-64
2021/05/11 13:39:30;;;;;;;;;;;16.10;99.90;;;;;;8298272;28;19917;-65
2021/05/11 13:43:30;;;;;;;;;;;15.90;99.90;;;;;;8298042;28;19909;-65
2021/05/11 13:47:31;;;;;;;;;;;16.10;99.90;;;;;;8298045;28;20308;-64
2021/05/11 13:51:31;;;;;;;;;;;16.00;99.90;;;;;;8291946;28;20343;-65
2021/05/11 13:55:44;;;;;;;;;;;15.90;99.90;;;;;;8290820;28;19996;-65
2021/05/11 14:04:06;;;;;;;;;;;15.90;99.90;;;;;;8297596;28;20312;-64
2021/05/11 14:08:06;;;;;;;;;;;15.90;99.90;;;;;;8297216;28;19909;-64
2021/05/11 14:12:07;;;;;;;;;;;15.80;99.90;;;;;;8297066;28;19920;-65
2021/05/11 14:16:07;;;;;;;;;;;15.90;99.90;;;;;;8281709;28;19999;-65
2021/05/11 14:20:08;;;;;;;;;;;15.80;99.90;;;;;;8274831;28;20016;-65
2021/05/11 14:24:09;;;;;;;;;;;15.80;99.90;;;;;;8296442;28;20312;-64
2021/05/11 14:28:09;;;;;;;;;;;15.80;99.90;;;;;;8284130;28;20431;-65
2021/05/11 14:32:10;;;;;;;;;;;15.80;99.90;;;;;;8268444;28;19918;-65
2021/05/11 14:36:11;;;;;;;;;;;15.70;99.90;;;;;;8276066;28;19924;-65
2021/05/11 14:40:12;;;;;;;;;;;15.60;99.90;;;;;;8276866;28;20525;-65
2021/05/11 14:44:12;;;;;;;;;;;15.50;99.90;;;;;;8261007;28;19914;-65
2021/05/11 14:48:13;;;;;;;;;;;15.50;99.90;;;;;;8273961;28;20004;-65
2021/05/11 14:52:13;;;;;;;;;;;15.50;99.90;;;;;;8268286;28;20481;-65
2021/05/11 14:56:14;;;;;;;;;;;15.40;99.90;;;;;;8263980;28;19921;-65
2021/05/11 15:00:15;;;;;;;;;;;15.20;99.90;;;;;;8263698;28;20000;-64
2021/05/11 15:04:15;;;;;;;;;;;15.10;99.90;;;;;;8275021;28;20431;-65
2021/05/11 15:08:16;;;;;;;;;;;14.90;99.90;;;;;;8294432;28;19913;-64
2021/05/11 15:12:16;;;;;;;;;;;14.90;99.90;;;;;;8293289;28;19913;-65
2021/05/11 15:16:23;;;;;;;;;;;14.90;99.90;;;;;;8270169;28;19918;-64
2021/05/11 15:20:24;;;;;;;;;;;14.60;99.90;;;;;;8268448;28;19964;-64
2021/05/11 15:24:24;;;;;;;;;;;14.70;99.90;;;;;;8281701;28;19917;-65
2021/05/11 15:28:25;;;;;;;;;;;14.60;99.90;;;;;;8295271;28;19910;-64
2021/05/11 15:32:34;;;;;;;;;;;14.70;99.90;;;;;;8294250;28;19913;-65
2021/05/11 15:36:35;;;;;;;;;;;14.70;99.90;;;;;;8263902;28;19965;-65
2021/05/11 15:40:37;;;;;;;;;;;14.60;99.90;;;;;;8282886;28;20512;-64
2021/05/11 15:44:37;;;;;;;;;;;14.70;99.90;;;;;;8277506;28;19914;-64
2021/05/11 15:48:37;;;;;;;;;;;14.80;99.90;;;;;;8277480;28;20007;-65
2021/05/11 15:52:38;;;;;;;;;;;14.60;99.90;;;;;;8277123;28;19925;-64
2021/05/11 15:56:38;;;;;;;;;;;14.50;99.90;;;;;;8277271;28;20377;-65
2021/05/11 16:00:40;;;;;;;;;;;14.40;99.90;;;;;;8277367;28;19913;-64
2021/05/11 16:04:40;;;;;;;;;;;14.30;99.90;;;;;;8279905;28;19917;-64
2021/05/11 16:08:41;;;;;;;;;;;14.10;99.90;;;;;;8279984;28;19964;-64
2021/05/11 16:12:42;;;;;;;;;;;14.00;99.90;;;;;;8275385;28;19960;-66
2021/05/11 16:16:42;;;;;;;;;;;13.70;99.90;;;;;;8275725;28;19973;-66
2021/05/11 16:20:43;;;;;;;;;;;13.60;99.90;;;;;;8281757;28;19920;-65
2021/05/11 16:24:43;;;;;;;;;;;13.60;99.90;;;;;;8292461;28;19917;-64
2021/05/11 16:28:44;;;;;;;;;;;13.50;99.90;;;;;;8292513;28;19916;-64
2021/05/11 16:32:44;;;;;;;;;;;13.40;99.90;;;;;;8292179;28;19921;-64
2021/05/11 16:36:45;;;;;;;;;;;13.10;99.90;;;;;;8282595;28;19952;-63
2021/05/11 16:40:45;;;;;;;;;;;12.60;99.90;;;;;;8291683;28;19914;-63
2021/05/11 16:44:46;;;;;;;;;;;12.10;99.90;;;;;;8292800;28;19918;-64
2021/05/11 16:48:46;;;;;;;;;;;11.70;99.90;;;;;;8291508;28;19921;-63
2021/05/11 16:52:47;;;;;;;;;;;11.50;99.90;;;;;;8292493;28;19924;-64
2021/05/11 16:56:47;;;;;;;;;;;11.60;99.90;;;;;;8289145;28;19920;-64
2021/05/11 17:00:49;;;;;;;;;;;11.70;99.90;;;;;;8290790;28;19918;-63
2021/05/11 17:04:49;;;;;;;;;;;11.70;99.90;;;;;;8273338;28;20000;-63
2021/05/11 17:08:50;;;;;;;;;;;11.70;99.90;;;;;;8292277;28;19914;-63
2021/05/11 17:12:51;;;;;;;;;;;11.70;99.90;;;;;;8291565;28;19913;-63
2021/05/11 17:16:51;;;;;;;;;;;11.70;99.90;;;;;;8292203;28;19948;-64
2021/05/11 17:20:51;;;;;;;;;;;11.70;99.90;;;;;;8289814;28;19919;-64
2021/05/11 17:24:52;;;;;;;;;;;11.70;99.90;;;;;;8287958;28;20008;-63
2021/05/11 17:28:56;;;;;;;;;;;11.70;99.90;;;;;;8292078;28;19914;-64
2021/05/11 17:32:56;;;;;;;;;;;11.70;99.90;;;;;;8291289;28;20273;-64
2021/05/11 17:36:57;;;;;;;;;;;11.70;99.90;;;;;;8273607;28;19917;-64
2021/05/11 17:41:00;;;;;;;;;;;11.80;99.90;;;;;;8280860;28;20327;-64
2021/05/11 17:45:01;;;;;;;;;;;11.80;99.90;;;;;;8288396;28;19909;-64
2021/05/11 17:49:02;;;;;;;;;;;11.80;99.90;;;;;;8282462;28;19938;-64
2021/05/11 17:53:03;;;;;;;;;;;11.90;99.90;;;;;;8272635;28;19932;-64
2021/05/11 17:57:03;;;;;;;;;;;11.80;99.90;;;;;;8257148;28;20524;-63
2021/05/11 18:01:04;;;;;;;;;;;11.80;99.90;;;;;;8288579;28;20292;-64
2021/05/11 18:09:41;;;;;;;;;;;11.70;99.90;;;;;;8293463;28;20355;-91
2021/05/11 18:18:04;;;;;;;;;;;11.60;99.90;;;;;;8356596;22;19931;-63
2021/05/11 18:22:04;;;;;;;;;;;11.40;99.90;;;;;;8341074;28;19956;-64
2021/05/11 18:26:05;;;;;;;;;;;11.40;99.90;;;;;;8357242;28;19913;-63
2021/05/11 18:30:07;;;;;;;;;;;11.30;99.90;;;;;;8352689;28;19959;-65
2021/05/11 18:34:07;;;;;;;;;;;11.20;99.90;;;;;;8352033;28;19921;-64
2021/05/11 18:38:14;;;;;;;;;;;11.20;99.90;;;;;;8357581;28;19916;-63
2021/05/11 18:42:14;;;;;;;;;;;11.10;99.90;;;;;;8354169;28;20621;-63
2021/05/11 18:46:15;;;;;;;;;;;11.00;99.90;;;;;;8346981;28;19923;-64
2021/05/11 18:50:15;;;;;;;;;;;11.00;99.90;;;;;;8347373;28;20354;-64
2021/05/11 18:54:16;;;;;;;;;;;10.90;99.90;;;;;;8348975;28;19923;-65
2021/05/11 18:58:16;;;;;;;;;;;10.90;99.90;;;;;;8340027;28;19980;-63
2021/05/11 19:02:17;;;;;;;;;;;11.00;99.90;;;;;;8346851;28;20019;-63
2021/05/11 19:06:18;;;;;;;;;;;11.00;99.90;;;;;;8349957;28;19917;-63
2021/05/11 19:10:18;;;;;;;;;;;11.00;99.90;;;;;;8351664;28;19917;-64
2021/05/11 19:14:20;;;;;;;;;;;10.90;99.90;;;;;;8341903;28;19921;-64
2021/05/11 19:18:21;;;;;;;;;;;10.90;99.90;;;;;;8350508;28;19966;-64
2021/05/11 19:22:21;;;;;;;;;;;10.80;99.90;;;;;;8348782;28;20386;-64
2021/05/11 19:26:22;;;;;;;;;;;10.80;99.90;;;;;;8352865;28;19920;-63
2021/05/11 19:30:22;;;;;;;;;;;10.70;99.90;;;;;;8352938;28;20524;-64
2021/05/11 19:34:23;;;;;;;;;;;10.90;99.90;;;;;;8349301;28;19947;-64
2021/05/11 19:38:23;;;;;;;;;;;10.80;99.90;;;;;;8333928;28;19921;-69
2021/05/11 19:42:24;;;;;;;;;;;10.70;99.90;;;;;;8320547;28;19928;-69
2021/05/11 19:46:25;;;;;;;;;;;10.80;99.90;;;;;;8310521;28;19917;-63
2021/05/11 19:50:26;;;;;;;;;;;10.80;99.90;;;;;;8316926;28;20008;-64
2021/05/11 19:54:30;;;;;;;;;;;10.80;99.90;;;;;;8320296;28;19925;-63
2021/05/11 19:58:31;;;;;;;;;;;10.80;99.90;;;;;;8316374;28;19920;-63
2021/05/11 20:02:31;;;;;;;;;;;10.80;99.90;;;;;;8319503;28;19924;-63
2021/05/11 20:06:32;;;;;;;;;;;10.80;99.90;;;;;;8320303;28;19921;-64
2021/05/11 20:10:33;;;;;;;;;;;10.80;99.90;;;;;;8321896;28;20525;-63
2021/05/11 20:14:34;;;;;;;;;;;10.90;99.90;;;;;;8319748;28;20007;-63
2021/05/11 20:18:34;;;;;;;;;;;10.80;99.90;;;;;;8309490;28;19971;-63
2021/05/11 20:22:35;;;;;;;;;;;10.70;99.90;;;;;;8306064;28;19913;-64
2021/05/11 20:26:35;;;;;;;;;;;10.80;99.90;;;;;;8305920;28;20028;-63
2021/05/11 20:30:36;;;;;;;;;;;10.70;99.90;;;;;;8316148;28;19932;-63
2021/05/11 20:34:36;;;;;;;;;;;10.70;99.90;;;;;;8320373;28;19955;-63
2021/05/11 20:38:38;;;;;;;;;;;10.70;99.90;;;;;;8320691;28;19959;-63
2021/05/11 20:42:39;;;;;;;;;;;10.70;99.90;;;;;;8306898;28;19999;-63
2021/05/11 20:46:40;;;;;;;;;;;10.70;99.90;;;;;;8311739;28;19917;-64
2021/05/11 20:50:41;;;;;;;;;;;10.70;99.90;;;;;;8325342;28;19924;-63
2021/05/11 20:54:41;;;;;;;;;;;10.60;99.90;;;;;;8325426;28;19913;-63
2021/05/11 20:58:42;;;;;;;;;;;10.60;99.90;;;;;;8307956;28;19914;-63
2021/05/11 21:02:42;;;;;;;;;;;10.60;99.90;;;;;;8308486;28;19922;-64
2021/05/11 21:06:43;;;;;;;;;;;10.40;99.90;;;;;;8324917;28;19913;-63
2021/05/11 21:10:44;;;;;;;;;;;10.50;99.90;;;;;;8325560;28;19909;-63
2021/05/11 21:14:45;;;;;;;;;;;10.50;99.90;;;;;;8325332;28;19943;-63
2021/05/11 21:18:46;;;;;;;;;;;10.60;99.90;;;;;;8324342;28;19921;-63
2021/05/11 21:22:47;;;;;;;;;;;10.50;99.90;;;;;;8322932;28;19916;-64
2021/05/11 21:26:47;;;;;;;;;;;10.50;99.90;;;;;;8321329;28;20547;-63
2021/05/11 21:30:48;;;;;;;;;;;10.50;99.90;;;;;;8324317;28;19916;-63
2021/05/11 21:34:48;;;;;;;;;;;10.40;99.90;;;;;;8323373;28;19913;-63
2021/05/11 21:38:49;;;;;;;;;;;10.40;99.90;;;;;;8329634;28;20399;-64
2021/05/11 21:42:49;;;;;;;;;;;10.50;99.90;;;;;;8329147;28;19956;-64
2021/05/11 21:46:51;;;;;;;;;;;10.40;99.90;;;;;;8329496;28;19917;-63
2021/05/11 21:50:51;;;;;;;;;;;10.40;99.90;;;;;;8328046;28;19916;-63
2021/05/11 21:54:52;;;;;;;;;;;10.40;99.90;;;;;;8329093;28;20571;-63
2021/05/11 21:58:52;;;;;;;;;;;10.40;99.90;;;;;;8328627;28;19992;-63
2021/05/11 22:02:53;;;;;;;;;;;10.30;99.90;;;;;;8328402;28;19909;-63
2021/05/11 22:06:53;;;;;;;;;;;10.40;99.90;;;;;;8328567;28;19917;-64
2021/05/11 22:10:54;;;;;;;;;;;10.30;99.90;;;;;;8328863;28;19994;-65
2021/05/11 22:14:55;;;;;;;;;;;10.40;99.90;;;;;;8328282;28;19943;-63
2021/05/11 22:18:56;;;;;;;;;;;10.30;99.90;;;;;;8285869;28;1236786;-63
2021/05/11 22:22:57;;;;;;;;;;;10.30;99.90;;;;;;8330010;28;19935;-63
2021/05/11 22:26:57;;;;;;;;;;;10.20;99.90;;;;;;8329195;28;19909;-63
2021/05/11 22:30:58;;;;;;;;;;;10.30;99.90;;;;;;8330150;28;19909;-63
2021/05/11 22:34:59;;;;;;;;;;;10.20;99.90;;;;;;8329046;28;19913;-64
2021/05/11 22:39:00;;;;;;;;;;;10.30;99.90;;;;;;8329423;28;19935;-63
2021/05/11 22:43:02;;;;;;;;;;;10.30;99.90;;;;;;8327861;28;19909;-63
2021/05/11 22:47:03;;;;;;;;;;;10.20;99.90;;;;;;8328071;28;20510;-64
2021/05/11 22:51:03;;;;;;;;;;;10.20;99.90;;;;;;8329041;28;19913;-63
2021/05/11 22:55:04;;;;;;;;;;;10.20;99.90;;;;;;8328925;28;19913;-63
2021/05/11 22:59:04;;;;;;;;;;;10.20;99.90;;;;;;8328428;28;19913;-63
2021/05/11 23:03:06;;;;;;;;;;;10.20;99.90;;;;;;8328303;28;20318;-63
2021/05/11 23:07:06;;;;;;;;;;;10.10;99.90;;;;;;8328542;28;19948;-63
2021/05/11 23:11:07;;;;;;;;;;;10.10;99.90;;;;;;8328620;28;20690;-63
2021/05/11 23:15:08;;;;;;;;;;;10.30;99.90;;;;;;8328392;28;20003;-64
2021/05/11 23:19:12;;;;;;;;;;;10.20;99.90;;;;;;8328301;28;19971;-63
2021/05/11 23:23:13;;;;;;;;;;;10.20;99.90;;;;;;8326575;28;19920;-63
2021/05/11 23:27:14;;;;;;;;;;;10.10;99.90;;;;;;8327885;28;19910;-64
2021/05/11 23:31:14;;;;;;;;;;;10.10;99.90;;;;;;8326954;28;20371;-63
2021/05/11 23:35:15;;;;;;;;;;;10.20;99.90;;;;;;8327306;28;20586;-63
2021/05/11 23:39:16;;;;;;;;;;;10.10;99.90;;;;;;8327431;28;19909;-63
2021/05/11 23:43:16;;;;;;;;;;;10.10;99.90;;;;;;8327275;28;19984;-64
2021/05/11 23:47:17;;;;;;;;;;;10.20;99.90;;;;;;8327327;28;20062;-63
2021/05/11 23:51:17;;;;;;;;;;;10.10;99.90;;;;;;8326736;28;19913;-63
2021/05/11 23:55:18;;;;;;;;;;;10.10;99.90;;;;;;8326920;28;19917;-63
2021/05/11 23:59:19;;;;;;;;;;;10.20;99.90;;;;;;8325078;28;19910;-63
